createdAt,value
2018-03-03T00:02:18.453Z,14.50
2018-03-03T00:04:45.835Z,14.93
2018-03-03T00:07:13.216Z,15.03
2018-03-03T00:09:40.573Z,14.80
2018-03-03T00:12:08.006Z,14.20
2018-03-03T00:14:35.519Z,14.53
2018-03-03T00:17:03.146Z,13.93
2018-03-03T00:19:30.532Z,14.23
2018-03-03T00:21:57.949Z,14.27
2018-03-03T00:24:25.458Z,12.70
2018-03-03T00:26:52.869Z,13.60
2018-03-03T00:29:20.227Z,12.53
2018-03-03T00:31:47.617Z,12.87
2018-03-03T00:34:14.966Z,13.30
2018-03-03T00:36:42.362Z,12.77
2018-03-03T00:39:09.720Z,12.80
2018-03-03T00:41:37.417Z,12.47
2018-03-03T00:44:04.772Z,12.17
2018-03-03T00:46:32.128Z,12.10
2018-03-03T00:48:59.569Z,12.27
2018-03-03T00:51:27.009Z,11.57
2018-03-03T00:53:54.473Z,12.30
2018-03-03T00:56:21.869Z,11.70
2018-03-03T00:58:49.371Z,10.97
2018-03-03T01:01:16.747Z,11.17
2018-03-03T01:03:44.107Z,11.40
2018-03-03T01:06:11.516Z,11.50
2018-03-03T01:08:38.925Z,10.90
2018-03-03T01:11:06.418Z,10.83
2018-03-03T01:13:33.806Z,10.37
2018-03-03T01:16:01.354Z,10.60
2018-03-03T01:18:28.761Z,10.07
2018-03-03T01:20:56.384Z,10.27
2018-03-03T01:23:23.785Z,10.47
2018-03-03T01:25:51.157Z,10.17
2018-03-03T01:28:18.550Z,10.27
2018-03-03T01:30:45.890Z,9.90
2018-03-03T01:33:13.271Z,9.70
2018-03-03T01:35:40.618Z,10.40
2018-03-03T01:38:08.162Z,9.87
2018-03-03T01:40:35.513Z,9.60
2018-03-03T01:43:03.050Z,10.03
2018-03-03T01:45:30.549Z,9.97
2018-03-03T01:47:57.957Z,9.67
2018-03-03T01:50:25.409Z,10.33
2018-03-03T01:52:52.801Z,9.97
2018-03-03T01:55:20.185Z,9.80
2018-03-03T01:57:47.528Z,9.63
2018-03-03T02:00:14.897Z,9.67
2018-03-03T02:02:42.239Z,9.40
2018-03-03T02:07:42.317Z,9.47
2018-03-03T02:10:09.689Z,9.10
2018-03-03T02:12:37.064Z,9.13
2018-03-03T02:15:04.406Z,8.63
2018-03-03T02:17:31.742Z,9.40
2018-03-03T02:19:59.128Z,8.43
2018-03-03T02:22:26.483Z,8.50
2018-03-03T02:24:53.829Z,8.50
2018-03-03T02:27:21.161Z,8.50
2018-03-03T02:29:48.529Z,9.03
2018-03-03T02:32:15.899Z,8.47
2018-03-03T02:34:43.237Z,8.33
2018-03-03T02:37:10.565Z,7.80
2018-03-03T02:39:37.910Z,7.60
2018-03-03T02:42:05.278Z,8.13
2018-03-03T02:44:32.668Z,7.57
2018-03-03T02:47:00.037Z,7.10
2018-03-03T02:49:27.417Z,6.70
2018-03-03T02:51:54.757Z,6.20
2018-03-03T02:54:22.093Z,6.20
2018-03-03T02:56:49.483Z,6.53
2018-03-03T02:59:16.810Z,6.43
2018-03-03T03:01:44.190Z,6.17
2018-03-03T03:04:11.526Z,6.33
2018-03-03T03:06:38.943Z,6.33
2018-03-03T03:09:06.281Z,5.97
2018-03-03T03:11:33.606Z,6.00
2018-03-03T03:14:00.976Z,5.50
2018-03-03T03:16:28.388Z,5.73
2018-03-03T03:18:55.822Z,5.33
2018-03-03T03:21:23.157Z,5.53
2018-03-03T03:23:50.537Z,5.43
2018-03-03T03:26:17.873Z,5.00
2018-03-03T03:28:45.246Z,5.20
2018-03-03T03:33:45.956Z,5.07
2018-03-03T03:36:13.294Z,5.37
2018-03-03T03:38:40.640Z,4.53
2018-03-03T03:41:07.983Z,5.00
2018-03-03T03:43:35.320Z,5.10
2018-03-03T03:46:02.661Z,5.00
2018-03-03T03:48:30.041Z,4.30
2018-03-03T03:50:57.467Z,4.20
2018-03-03T03:53:24.841Z,4.33
2018-03-03T03:55:52.195Z,3.80
2018-03-03T03:58:19.540Z,4.07
2018-03-03T04:00:46.923Z,3.90
2018-03-03T04:03:14.257Z,3.60
2018-03-03T04:05:41.605Z,3.90
2018-03-03T04:08:08.952Z,3.70
2018-03-03T04:10:36.287Z,3.20
2018-03-03T04:13:03.629Z,3.50
2018-03-03T04:15:30.962Z,2.97
2018-03-03T04:17:58.318Z,3.03
2018-03-03T04:20:25.702Z,3.13
2018-03-03T04:22:53.050Z,3.10
2018-03-03T04:25:20.405Z,3.23
2018-03-03T04:27:47.751Z,2.90
2018-03-03T04:30:15.086Z,3.33
2018-03-03T04:32:42.419Z,2.77
2018-03-03T04:35:09.789Z,2.70
2018-03-03T04:37:37.143Z,2.50
2018-03-03T04:40:04.525Z,2.70
2018-03-03T04:42:31.857Z,2.50
2018-03-03T04:44:59.186Z,2.40
2018-03-03T04:47:26.522Z,2.47
2018-03-03T04:49:53.862Z,2.30
2018-03-03T04:52:21.216Z,2.30
2018-03-03T04:54:48.581Z,2.50
2018-03-03T04:57:15.964Z,1.93
2018-03-03T04:59:43.313Z,2.40
2018-03-03T05:02:10.655Z,2.37
2018-03-03T05:04:38.025Z,2.03
2018-03-03T05:07:05.358Z,2.60
2018-03-03T05:09:32.687Z,1.87
2018-03-03T05:12:00.023Z,2.10
2018-03-03T05:14:27.362Z,2.20
2018-03-03T05:16:54.697Z,2.30
2018-03-03T05:19:22.102Z,2.13
